createdAt,value
2022-11-13T00:00:56.607Z,13.65
2022-11-13T00:03:23.395Z,8.85
2022-11-13T00:05:59.366Z,10.07
2022-11-13T00:08:26.186Z,17.38
2022-11-13T00:10:59.340Z,7.05
2022-11-13T00:13:30.147Z,10.40
2022-11-13T00:15:58.510Z,9.90
2022-11-13T00:18:25.393Z,11.13
2022-11-13T00:20:52.265Z,13.68
2022-11-13T00:23:18.834Z,8.48
2022-11-13T00:25:45.392Z,9.38
2022-11-13T00:28:11.929Z,7.95
2022-11-13T00:30:38.494Z,8.50
2022-11-13T00:33:05.049Z,9.48
2022-11-13T00:35:32.765Z,5.85
2022-11-13T00:37:59.386Z,6.32
2022-11-13T00:40:25.927Z,5.90
2022-11-13T00:42:52.435Z,7.90
2022-11-13T00:45:18.954Z,7.07
2022-11-13T00:47:45.455Z,10.20
2022-11-13T00:50:12.031Z,13.18
2022-11-13T00:52:38.603Z,9.10
2022-11-13T00:55:05.607Z,11.27
2022-11-13T00:57:32.161Z,5.97
2022-11-13T00:59:58.662Z,7.93
2022-11-13T01:02:25.218Z,10.57
2022-11-13T01:04:51.751Z,6.47
2022-11-13T01:07:18.421Z,9.13
2022-11-13T01:09:45.031Z,6.00
2022-11-13T01:12:12.708Z,9.93
2022-11-13T01:14:39.284Z,9.90
2022-11-13T01:17:05.837Z,9.30
2022-11-13T01:19:32.406Z,10.10
2022-11-13T01:21:58.947Z,8.27
2022-11-13T01:24:25.543Z,14.18
2022-11-13T01:26:52.073Z,10.27
2022-11-13T01:29:18.594Z,13.60
2022-11-13T01:31:45.133Z,8.93
2022-11-13T01:34:11.739Z,8.98
2022-11-13T01:36:38.243Z,5.35
2022-11-13T01:39:04.846Z,8.82
2022-11-13T01:41:33.464Z,5.50
2022-11-13T01:44:01.141Z,6.15
2022-11-13T01:46:31.933Z,4.97
2022-11-13T01:49:10.695Z,6.95
2022-11-13T01:51:52.531Z,4.32
2022-11-13T01:54:42.995Z,9.30
2022-11-13T01:57:10.488Z,6.68
2022-11-13T01:59:43.871Z,8.77
2022-11-13T02:02:10.537Z,6.90
2022-11-13T02:04:37.170Z,5.30
2022-11-13T02:07:12.793Z,6.97
2022-11-13T02:09:42.998Z,8.07
2022-11-13T02:12:15.346Z,7.95
2022-11-13T02:14:45.697Z,9.77
2022-11-13T02:17:19.608Z,6.10
2022-11-13T02:19:50.182Z,7.80
2022-11-13T02:22:20.179Z,10.27
2022-11-13T02:24:49.845Z,15.30
2022-11-13T02:27:30.191Z,11.45
2022-11-13T02:29:56.739Z,9.80
2022-11-13T02:32:23.275Z,14.93
2022-11-13T02:34:49.808Z,5.43
2022-11-13T02:37:17.227Z,7.10
2022-11-13T02:39:43.747Z,8.95
2022-11-13T02:42:10.308Z,9.85
2022-11-13T02:44:36.843Z,9.75
2022-11-13T02:47:03.449Z,8.00
2022-11-13T02:49:29.976Z,11.00
2022-11-13T02:51:56.518Z,11.88
2022-11-13T02:54:23.074Z,6.75
2022-11-13T02:56:49.627Z,11.52
2022-11-13T02:59:16.285Z,8.77
2022-11-13T03:01:42.929Z,7.38
2022-11-13T03:04:09.715Z,7.32
2022-11-13T03:06:36.239Z,6.88
2022-11-13T03:09:02.962Z,10.13
2022-11-13T03:11:29.487Z,7.90
2022-11-13T03:13:56.498Z,12.05
2022-11-13T03:16:23.072Z,7.97
2022-11-13T03:18:49.645Z,9.68
2022-11-13T03:21:16.412Z,8.88
2022-11-13T03:23:46.541Z,8.80
2022-11-13T03:26:15.653Z,8.75
2022-11-13T03:28:42.257Z,6.65
2022-11-13T03:31:09.094Z,8.25
2022-11-13T03:33:35.634Z,12.40
2022-11-13T03:36:02.199Z,6.18
2022-11-13T03:38:28.927Z,5.72
2022-11-13T03:40:55.731Z,10.98
2022-11-13T03:43:22.671Z,17.02
2022-11-13T03:45:49.502Z,10.40
2022-11-13T03:48:16.535Z,11.15
2022-11-13T03:50:45.741Z,9.82
2022-11-13T03:53:12.640Z,8.60
2022-11-13T03:55:39.612Z,14.48
2022-11-13T03:58:06.236Z,9.25
2022-11-13T04:00:33.414Z,11.05
2022-11-13T04:02:59.949Z,8.88
2022-11-13T04:05:27.291Z,13.23
2022-11-13T04:07:53.967Z,8.23
2022-11-13T04:10:20.597Z,11.10
2022-11-13T04:12:47.304Z,14.02
2022-11-13T04:15:13.834Z,10.27
2022-11-13T04:17:40.408Z,9.63
2022-11-13T04:20:07.895Z,7.18
2022-11-13T04:22:34.440Z,7.25
2022-11-13T04:25:01.006Z,13.32
2022-11-13T04:27:27.561Z,7.15
2022-11-13T04:29:54.128Z,8.35
2022-11-13T04:32:20.696Z,11.75
2022-11-13T04:34:47.256Z,10.07
2022-11-13T04:37:14.136Z,5.72
2022-11-13T04:39:40.684Z,9.07
2022-11-13T04:42:27.530Z,9.52
2022-11-13T04:44:54.074Z,7.07
2022-11-13T04:47:20.889Z,7.00
2022-11-13T04:49:47.402Z,7.80
2022-11-13T04:52:14.270Z,9.15
2022-11-13T04:54:40.961Z,6.57
2022-11-13T04:57:07.502Z,10.55
2022-11-13T04:59:34.004Z,6.43
2022-11-13T05:02:00.782Z,11.65
2022-11-13T05:04:27.350Z,9.00
2022-11-13T05:06:53.961Z,5.97
2022-11-13T05:09:20.526Z,7.25
2022-11-13T05:11:47.135Z,8.13
2022-11-13T05:14:13.868Z,6.53
2022-11-13T05:16:40.651Z,8.98
2022-11-13T05:19:07.961Z,8.93
2022-11-13T05:21:39.155Z,8.30
2022-11-13T05:24:06.170Z,12.07
2022-11-13T05:26:32.925Z,9.27
2022-11-13T05:29:00.581Z,8.93
2022-11-13T05:31:27.711Z,9.98
2022-11-13T05:33:54.803Z,12.00
2022-11-13T05:36:22.366Z,9.35
2022-11-13T05:38:48.986Z,8.95
2022-11-13T05:41:20.756Z,12.88
2022-11-13T05:43:47.980Z,8.35
2022-11-13T05:46:14.487Z,8.48
2022-11-13T05:48:41.944Z,8.73
2022-11-13T05:51:17.313Z,12.40
2022-11-13T05:53:44.084Z,7.55
2022-11-13T05:56:14.894Z,8.35
2022-11-13T05:58:43.011Z,12.60
2022-11-13T06:01:12.674Z,10.90
2022-11-13T06:03:39.847Z,9.05
2022-11-13T06:06:08.847Z,8.20
2022-11-13T06:08:36.007Z,7.70
2022-11-13T06:11:05.556Z,9.25
2022-11-13T06:13:32.544Z,8.15
2022-11-13T06:16:07.247Z,8.27
2022-11-13T06:18:34.754Z,11.15
2022-11-13T06:21:03.434Z,12.65
2022-11-13T06:23:31.991Z,13.35
2022-11-13T06:26:04.143Z,5.47
2022-11-13T06:28:31.147Z,7.75
2022-11-13T06:31:03.927Z,8.38
2022-11-13T06:33:31.025Z,9.27
2022-11-13T06:35:58.009Z,8.40
2022-11-13T06:38:24.623Z,7.60
2022-11-13T06:40:51.158Z,7.57
2022-11-13T06:43:17.690Z,10.57
2022-11-13T06:45:44.246Z,11.80
2022-11-13T06:48:10.981Z,7.82
2022-11-13T06:50:37.604Z,7.43
2022-11-13T06:53:04.159Z,6.30
2022-11-13T06:55:30.704Z,12.32
2022-11-13T06:57:57.340Z,10.68
2022-11-13T07:00:23.902Z,13.68
2022-11-13T07:02:50.508Z,10.15
2022-11-13T07:05:17.503Z,6.55
2022-11-13T07:07:44.070Z,9.82
2022-11-13T07:10:10.819Z,13.52
2022-11-13T07:12:37.454Z,8.32
2022-11-13T07:15:04.340Z,10.93
2022-11-13T07:17:30.911Z,11.40
2022-11-13T07:19:57.450Z,12.70
2022-11-13T07:22:25.345Z,7.63
2022-11-13T07:24:53.566Z,10.23
2022-11-13T07:27:20.079Z,9.45
2022-11-13T07:29:46.586Z,12.85
2022-11-13T07:32:13.166Z,6.72
2022-11-13T07:34:39.696Z,11.20
2022-11-13T07:37:09.157Z,8.27
2022-11-13T07:39:35.709Z,17.80
2022-11-13T07:42:02.445Z,7.93
2022-11-13T07:44:52.977Z,6.63
2022-11-13T07:47:15.609Z,10.02
2022-11-13T07:49:42.146Z,7.25
2022-11-13T07:52:08.763Z,6.65
2022-11-13T07:54:35.457Z,5.22
2022-11-13T07:57:02.008Z,8.52
2022-11-13T07:59:28.544Z,5.97
2022-11-13T08:01:55.087Z,16.13
2022-11-13T08:04:21.887Z,7.25
2022-11-13T08:06:48.443Z,15.07
2022-11-13T08:09:15.072Z,16.58
2022-11-13T08:11:41.761Z,10.35
2022-11-13T08:14:08.798Z,17.27
2022-11-13T08:16:35.365Z,12.77
2022-11-13T08:19:02.939Z,13.23
2022-11-13T08:21:29.603Z,10.20
2022-11-13T08:23:56.106Z,10.10
2022-11-13T08:26:23.103Z,19.05
2022-11-13T08:28:49.715Z,12.18
2022-11-13T08:31:17.048Z,10.45
2022-11-13T08:33:43.731Z,17.23
2022-11-13T08:36:11.403Z,11.60
2022-11-13T08:38:38.194Z,13.70
2022-11-13T08:41:09.315Z,13.05
2022-11-13T08:43:36.410Z,13.55
2022-11-13T08:46:03.154Z,10.05
2022-11-13T08:48:30.304Z,19.52
2022-11-13T08:50:57.609Z,14.93
2022-11-13T08:53:25.228Z,11.75
2022-11-13T08:55:52.083Z,15.43
2022-11-13T08:58:18.718Z,18.05
2022-11-13T09:00:45.284Z,13.25
2022-11-13T09:03:12.417Z,12.05
2022-11-13T09:05:39.209Z,15.18
2022-11-13T09:08:06.372Z,15.32
2022-11-13T09:10:33.273Z,18.70
2022-11-13T09:13:01.959Z,11.02
2022-11-13T09:15:30.406Z,12.50
2022-11-13T09:18:01.786Z,12.88
2022-11-13T09:20:32.879Z,9.50
2022-11-13T09:23:04.824Z,17.70
2022-11-13T09:25:37.291Z,21.17
2022-11-13T09:28:06.022Z,12.63
2022-11-13T09:30:32.939Z,10.05
2022-11-13T09:33:00.789Z,13.15
2022-11-13T09:35:34.524Z,13.52
2022-11-13T09:38:11.547Z,13.07
2022-11-13T09:40:52.140Z,16.45
2022-11-13T09:44:00.360Z,13.30
2022-11-13T09:46:49.315Z,9.90
2022-11-13T09:49:27.157Z,13.23
2022-11-13T09:51:57.538Z,23.55
2022-11-13T09:54:24.152Z,13.40
2022-11-13T09:57:11.563Z,13.25
2022-11-13T09:59:49.069Z,22.75
2022-11-13T10:02:38.257Z,15.82
2022-11-13T10:05:10.967Z,14.70
2022-11-13T10:07:55.006Z,16.25
2022-11-13T10:10:43.452Z,10.93
2022-11-13T10:13:21.367Z,10.57
2022-11-13T10:15:52.757Z,15.18
2022-11-13T10:18:34.723Z,26.90
2022-11-13T10:21:15.306Z,16.77
2022-11-13T10:23:47.028Z,15.35
2022-11-13T10:26:19.961Z,12.55
2022-11-13T10:28:51.705Z,12.80
2022-11-13T10:31:18.435Z,11.48
2022-11-13T10:33:44.991Z,12.68
2022-11-13T10:36:26.193Z,16.60
2022-11-13T10:39:06.206Z,24.70
2022-11-13T10:41:33.097Z,13.07
2022-11-13T10:44:21.629Z,21.35
2022-11-13T10:46:48.732Z,19.75
2022-11-13T10:49:25.915Z,13.07
2022-11-13T10:51:57.632Z,20.08
2022-11-13T10:54:27.970Z,21.83
2022-11-13T10:57:03.531Z,14.63
2022-11-13T10:59:42.079Z,24.55
2022-11-13T11:02:11.397Z,13.10
2022-11-13T11:04:37.927Z,13.25
2022-11-13T11:07:21.304Z,12.07
2022-11-13T11:09:50.547Z,14.77
2022-11-13T11:12:31.164Z,19.20
2022-11-13T11:15:04.963Z,14.85
2022-11-13T11:17:46.171Z,22.67
2022-11-13T11:20:53.572Z,12.38
2022-11-13T11:23:29.296Z,13.52
2022-11-13T11:26:03.846Z,14.25
2022-11-13T11:28:35.830Z,15.63
2022-11-13T11:31:15.483Z,14.27
2022-11-13T11:33:59.008Z,11.23
2022-11-13T11:36:33.253Z,12.65
2022-11-13T11:39:21.386Z,17.52
2022-11-13T11:41:55.293Z,19.92
2022-11-13T11:44:29.507Z,20.23
2022-11-13T11:46:56.067Z,14.23
2022-11-13T11:49:25.895Z,24.40
2022-11-13T11:52:12.800Z,14.95
2022-11-13T11:54:49.072Z,14.55
2022-11-13T11:57:46.568Z,14.43
2022-11-13T12:00:17.307Z,15.10
2022-11-13T12:03:16.167Z,11.63
2022-11-13T12:06:00.295Z,14.32
2022-11-13T12:08:41.248Z,18.08
2022-11-13T12:11:31.677Z,13.70
2022-11-13T12:14:20.243Z,7.90
2022-11-13T12:17:05.839Z,14.00
2022-11-13T12:19:57.403Z,14.02
2022-11-13T12:22:48.540Z,11.77
2022-11-13T12:25:31.872Z,14.13
2022-11-13T12:28:28.280Z,9.82
2022-11-13T12:31:16.333Z,14.35
2022-11-13T12:34:07.378Z,11.23
2022-11-13T12:36:34.631Z,10.82
2022-11-13T12:39:31.487Z,12.00
2022-11-13T12:42:20.900Z,8.40
2022-11-13T12:44:56.313Z,11.63
2022-11-13T12:47:23.366Z,14.43
2022-11-13T12:50:00.660Z,11.85
2022-11-13T12:52:27.336Z,14.65
2022-11-13T12:55:05.581Z,17.80
2022-11-13T12:57:32.440Z,14.77
2022-11-13T13:00:20.534Z,14.63
2022-11-13T13:02:55.171Z,11.63
2022-11-13T13:05:37.961Z,7.88
2022-11-13T13:08:28.113Z,9.02
2022-11-13T13:11:01.126Z,9.15
2022-11-13T13:13:39.903Z,10.35
2022-11-13T13:16:08.649Z,13.77
2022-11-13T13:18:37.622Z,10.68
2022-11-13T13:21:12.058Z,17.15
2022-11-13T13:23:47.419Z,9.18
2022-11-13T13:26:16.713Z,9.73
2022-11-13T13:28:51.103Z,13.00
2022-11-13T13:31:39.042Z,10.38
2022-11-13T13:34:23.696Z,10.13
2022-11-13T13:37:27.904Z,14.43
2022-11-13T13:40:20.212Z,8.52
2022-11-13T13:43:09.283Z,16.88
2022-11-13T13:46:02.146Z,11.13
2022-11-13T13:48:31.586Z,10.00
2022-11-13T13:51:01.095Z,19.25
2022-11-13T13:53:32.578Z,10.27
2022-11-13T13:56:01.264Z,11.65
2022-11-13T13:58:35.116Z,15.63
2022-11-13T14:01:18.409Z,11.98
2022-11-13T14:03:46.977Z,13.57
2022-11-13T14:06:23.075Z,11.10
2022-11-13T14:08:50.207Z,10.50
2022-11-13T14:11:19.907Z,13.13
2022-11-13T14:13:46.561Z,11.98
2022-11-13T14:16:13.964Z,11.27
2022-11-13T14:18:40.647Z,10.57
2022-11-13T14:21:17.618Z,15.35
2022-11-13T14:23:48.642Z,13.18
2022-11-13T14:26:15.643Z,12.88
2022-11-13T14:28:58.196Z,14.60
2022-11-13T14:31:30.690Z,13.80
2022-11-13T14:34:00.785Z,16.35
2022-11-13T14:36:31.464Z,13.18
2022-11-13T14:38:59.017Z,15.13
2022-11-13T14:41:35.125Z,11.20
2022-11-13T14:44:02.112Z,24.60
2022-11-13T14:46:34.759Z,17.42
2022-11-13T14:49:01.596Z,13.80
2022-11-13T14:51:30.484Z,16.38
2022-11-13T14:54:02.063Z,21.40
2022-11-13T14:56:37.287Z,17.15
2022-11-13T14:59:30.284Z,18.90
2022-11-13T15:01:57.868Z,19.10
2022-11-13T15:04:25.227Z,22.02
2022-11-13T15:06:55.631Z,19.05
2022-11-13T15:09:24.290Z,21.55
2022-11-13T15:11:51.018Z,19.73
2022-11-13T15:14:20.700Z,22.17
2022-11-13T15:16:49.314Z,20.92
2022-11-13T15:19:27.040Z,16.80
2022-11-13T15:22:25.427Z,24.10
2022-11-13T15:24:41.671Z,23.70
2022-11-13T15:27:15.053Z,20.08
2022-11-13T15:29:42.482Z,21.98
2022-11-13T15:32:13.909Z,23.33
2022-11-13T15:34:41.263Z,21.98
2022-11-13T15:37:15.788Z,20.80
2022-11-13T15:39:42.490Z,16.65
2022-11-13T15:42:16.073Z,19.80
2022-11-13T15:44:43.741Z,15.57
2022-11-13T15:47:30.089Z,19.85
2022-11-13T15:50:12.809Z,18.38
2022-11-13T15:52:42.592Z,16.83
2022-11-13T15:55:19.836Z,16.70
2022-11-13T15:57:46.571Z,19.80
2022-11-13T16:00:18.757Z,17.75
2022-11-13T16:02:49.988Z,14.73
2022-11-13T16:05:17.061Z,10.07
2022-11-13T16:07:43.807Z,11.10
2022-11-13T16:10:11.194Z,9.05
2022-11-13T16:12:38.276Z,8.75
2022-11-13T16:15:05.338Z,8.95
2022-11-13T16:17:39.239Z,13.27
2022-11-13T16:20:07.540Z,8.43
2022-11-13T16:22:34.126Z,8.85
2022-11-13T16:25:00.688Z,9.18
2022-11-13T16:27:29.743Z,8.30
2022-11-13T16:29:56.518Z,6.45
2022-11-13T16:32:23.786Z,7.70
2022-11-13T16:34:50.412Z,7.80
2022-11-13T16:37:19.400Z,7.47
2022-11-13T16:39:46.575Z,5.28
2022-11-13T16:42:14.763Z,6.55
2022-11-13T16:44:41.767Z,6.47
2022-11-13T16:47:33.700Z,5.97
2022-11-13T16:50:00.907Z,10.30
2022-11-13T16:52:27.862Z,9.32
2022-11-13T16:54:54.392Z,10.05
2022-11-13T16:57:20.927Z,6.78
2022-11-13T16:59:47.465Z,4.80
2022-11-13T17:02:16.412Z,7.63
2022-11-13T17:04:43.946Z,6.60
2022-11-13T17:07:15.036Z,7.07
2022-11-13T17:09:43.011Z,7.78
2022-11-13T17:12:10.995Z,4.97
2022-11-13T17:14:37.909Z,6.78
2022-11-13T17:17:06.155Z,4.15
2022-11-13T17:19:34.335Z,5.85
2022-11-13T17:22:01.495Z,5.85
2022-11-13T17:24:28.234Z,6.72
2022-11-13T17:26:54.831Z,6.72
2022-11-13T17:29:21.395Z,8.15
2022-11-13T17:31:47.915Z,4.82
2022-11-13T17:34:14.522Z,4.43
2022-11-13T17:36:41.295Z,4.43
2022-11-13T17:39:07.916Z,7.40
2022-11-13T17:41:34.916Z,4.25
2022-11-13T17:44:01.711Z,3.97
2022-11-13T17:46:28.318Z,5.18
2022-11-13T17:48:55.015Z,5.25
2022-11-13T17:51:21.797Z,4.53
2022-11-13T17:53:49.857Z,5.75
2022-11-13T17:56:17.577Z,5.88
2022-11-13T17:58:45.235Z,8.32
2022-11-13T18:01:14.614Z,7.32
2022-11-13T18:03:42.002Z,5.30
2022-11-13T18:06:13.403Z,4.70
2022-11-13T18:08:41.556Z,6.50
2022-11-13T18:11:17.296Z,5.43
2022-11-13T18:13:44.798Z,5.20
2022-11-13T18:16:16.455Z,5.93
2022-11-13T18:18:43.139Z,5.15
2022-11-13T18:21:22.833Z,7.57
2022-11-13T18:23:55.857Z,4.55
2022-11-13T18:26:22.788Z,6.43
2022-11-13T18:28:49.334Z,4.13
2022-11-13T18:31:18.467Z,3.40
2022-11-13T18:33:45.196Z,4.05
2022-11-13T18:36:12.015Z,5.07
2022-11-13T18:38:38.735Z,5.95
2022-11-13T18:41:23.959Z,5.38
2022-11-13T18:43:52.008Z,4.93
2022-11-13T18:46:20.961Z,4.60
2022-11-13T18:48:48.500Z,5.35
2022-11-13T18:51:20.159Z,6.32
2022-11-13T18:53:50.702Z,5.03
2022-11-13T18:56:23.425Z,4.43
2022-11-13T18:58:51.611Z,6.80
2022-11-13T19:01:23.188Z,5.45
2022-11-13T19:04:16.049Z,8.05
2022-11-13T19:06:39.519Z,3.85
2022-11-13T19:09:15.343Z,8.27
2022-11-13T19:11:43.233Z,6.80
2022-11-13T19:14:12.887Z,10.63
2022-11-13T19:16:39.860Z,5.22
2022-11-13T19:19:13.749Z,5.78
2022-11-13T19:21:40.465Z,3.85
2022-11-13T19:24:08.604Z,12.10
2022-11-13T19:26:35.362Z,6.97
2022-11-13T19:29:01.871Z,7.53
2022-11-13T19:31:28.647Z,6.43
2022-11-13T19:33:56.747Z,3.55
2022-11-13T19:36:24.884Z,7.07
2022-11-13T19:38:52.670Z,6.65
2022-11-13T19:41:19.760Z,7.95
2022-11-13T19:43:47.847Z,5.82
2022-11-13T19:46:15.738Z,5.75
2022-11-13T19:48:44.146Z,6.53
2022-11-13T19:51:22.471Z,9.48
2022-11-13T19:53:53.414Z,7.75
2022-11-13T19:56:21.479Z,6.18
2022-11-13T19:58:49.543Z,8.00
2022-11-13T20:01:19.846Z,5.20
2022-11-13T20:03:46.673Z,9.05
2022-11-13T20:06:16.411Z,7.05
2022-11-13T20:08:43.275Z,8.80
2022-11-13T20:11:11.886Z,8.68
2022-11-13T20:13:39.227Z,9.50
2022-11-13T20:16:07.259Z,9.98
2022-11-13T20:18:34.589Z,9.60
2022-11-13T20:21:01.496Z,9.00
2022-11-13T20:23:28.023Z,8.38
2022-11-13T20:26:00.189Z,11.48
2022-11-13T20:28:31.374Z,11.57
2022-11-13T20:31:10.492Z,10.43
2022-11-13T20:33:37.170Z,11.85
2022-11-13T20:36:04.464Z,10.30
2022-11-13T20:38:31.428Z,13.38
2022-11-13T20:40:58.075Z,10.23
2022-11-13T20:43:24.733Z,12.45
2022-11-13T20:45:51.295Z,13.32
2022-11-13T20:48:17.907Z,11.63
2022-11-13T20:50:44.796Z,11.95
2022-11-13T20:53:11.443Z,11.48
2022-11-13T20:55:38.695Z,10.57
2022-11-13T20:58:05.366Z,12.00
2022-11-13T21:00:32.098Z,14.70
2022-11-13T21:02:58.708Z,13.10
2022-11-13T21:05:25.271Z,14.23
2022-11-13T21:07:51.870Z,16.67
2022-11-13T21:10:18.573Z,15.93
2022-11-13T21:12:45.287Z,15.43
2022-11-13T21:15:11.795Z,14.73
2022-11-13T21:17:39.155Z,15.43
2022-11-13T21:20:06.242Z,20.05
2022-11-13T21:22:32.949Z,13.18
2022-11-13T21:24:59.466Z,17.38
2022-11-13T21:27:25.988Z,16.83
2022-11-13T21:29:52.968Z,13.68
2022-11-13T21:32:20.304Z,18.63
2022-11-13T21:34:46.817Z,17.10
2022-11-13T21:37:14.360Z,20.08
2022-11-13T21:39:40.968Z,15.10
2022-11-13T21:42:07.567Z,15.68
2022-11-13T21:44:34.182Z,16.75
2022-11-13T21:47:00.792Z,16.88
2022-11-13T21:49:27.397Z,19.63
2022-11-13T21:51:53.949Z,19.50
2022-11-13T21:54:20.523Z,17.98
2022-11-13T21:56:47.100Z,17.02
2022-11-13T21:59:13.726Z,18.75
2022-11-13T22:01:40.319Z,20.73
2022-11-13T22:04:07.393Z,21.10
2022-11-13T22:06:39.756Z,20.15
2022-11-13T22:09:23.355Z,19.13
2022-11-13T22:11:50.098Z,22.10
2022-11-13T22:14:16.987Z,19.45
2022-11-13T22:16:46.237Z,16.45
2022-11-13T22:19:20.340Z,25.55
2022-11-13T22:21:50.632Z,24.63
2022-11-13T22:24:17.241Z,20.83
2022-11-13T22:26:48.343Z,19.80
2022-11-13T22:29:15.120Z,29.55
2022-11-13T22:31:42.853Z,21.05
2022-11-13T22:34:09.367Z,19.17
2022-11-13T22:36:37.000Z,21.48
2022-11-13T22:39:04.655Z,15.38
2022-11-13T22:41:34.131Z,19.13
2022-11-13T22:44:03.486Z,21.13
2022-11-13T22:46:31.675Z,25.83
2022-11-13T22:49:01.595Z,22.42
2022-11-13T22:51:32.520Z,21.38
2022-11-13T22:54:01.525Z,17.95
2022-11-13T22:56:30.621Z,18.27
2022-11-13T22:59:00.720Z,18.63
2022-11-13T23:01:29.872Z,23.50
2022-11-13T23:03:58.019Z,21.05
2022-11-13T23:06:27.085Z,24.30
2022-11-13T23:08:54.261Z,19.48
2022-11-13T23:11:26.513Z,20.88
2022-11-13T23:13:56.428Z,24.45
2022-11-13T23:16:24.373Z,19.83
2022-11-13T23:18:53.135Z,23.45
2022-11-13T23:21:20.055Z,21.95
2022-11-13T23:23:47.273Z,21.67
2022-11-13T23:26:16.041Z,19.65
2022-11-13T23:28:43.039Z,23.42
2022-11-13T23:31:09.951Z,19.75
2022-11-13T23:33:37.978Z,19.10
2022-11-13T23:36:06.635Z,26.65
2022-11-13T23:38:33.475Z,23.75
2022-11-13T23:41:01.438Z,22.25
2022-11-13T23:43:53.909Z,20.17
2022-11-13T23:46:15.728Z,23.02
2022-11-13T23:48:42.483Z,24.13
2022-11-13T23:51:09.032Z,22.67
2022-11-13T23:53:35.572Z,18.92
2022-11-13T23:56:02.090Z,19.75
2022-11-13T23:58:31.851Z,18.70
